Flight Track Log - Related Links

Times and Time Zones

All times are in EDT time to prevent confusion due to time zone crossing. See the JBU667 flight status page for this flight to view local times or setup timezone preferences in your user account.

Time Position Orientation Groundspeed Altitude Reporting Facility
EDT Latitude Longitude Course Direction KTS MPH feet Rate Location/Type
Tue 10:15:55 PM 28.4350 -81.3160 146° Southeast 1 1  Level FlightAware ADS-B
Tue 10:23:25 PM 28.4350 -81.3180 270° West 7 8 28 Level FlightAware ADS-B
Tue 10:23:35 PM 28.4360 -81.3180 360° North 8 9 58 Level FlightAware ADS-B
Tue 10:24:06 PM 28.4370 -81.3180 360° North 8 9 59 Level FlightAware ADS-B
Tue 10:24:35 PM 28.4380 -81.3180 360° North 9 10 64 Level FlightAware ADS-B
Tue 10:25:05 PM 28.4400 -81.3190 336° Northwest 12 14 69 Level FlightAware ADS-B
Tue 10:25:30 PM 28.4410 -81.3190 360° North 7 8 76 Level FlightAware ADS-B
Tue 10:26:00 PM 28.4420 -81.3190 360° North 10 12 82 Level FlightAware ADS-B
Tue 10:26:45 PM 28.4440 -81.3190 360° North 5 6 92 Level FlightAware ADS-B
Tue 10:27:05 PM 28.4450 -81.3190 360° North 8 9 111 Level FlightAware ADS-B
Tue 10:27:35 PM 28.4460 -81.3190 360° North 10 12 122 Level FlightAware ADS-B
Tue 10:28:06 PM 28.4470 -81.3190 360° North 13 15 145 Level FlightAware ADS-B
Tue 10:28:31 PM 28.4480 -81.3200 319° Northwest 13 15 178 Level FlightAware ADS-B
Tue 10:28:57 PM 28.4480 -81.3220 270° West 11 13 218 Level FlightAware ADS-B
Tue 10:29:26 PM 28.4470 -81.3220 180° South 14 16 286 Level FlightAware ADS-B
Tue 10:29:57 PM 28.4360 -81.3220 180° South 132 152 436 Level FlightAware ADS-B
Tue 10:30:21 PM 28.4170 -81.3220 180° South 163 188 400 1,636 Climbing FlightAware ADS-B
Tue 10:30:41 PM 28.4030 -81.3150 156° South 152 175 1,200 1,680 Climbing FlightAware ADS-B
Tue 10:31:11 PM 28.3840 -81.2970 140° Southeast 195 224 1,800 1,200 Climbing FlightAware ADS-B
Tue 10:31:36 PM 28.3660 -81.2790 139° Southeast 223 257 2,300 2,291 Climbing FlightAware ADS-B
Tue 10:32:06 PM 28.3410 -81.2550 140° Southeast 237 273 3,900 3,536 Climbing FlightAware ADS-B
Tue 10:32:32 PM 28.3200 -81.2350 140° Southeast 218 251 5,600 3,240 Climbing FlightAware ADS-B
Tue 10:32:56 PM 28.3040 -81.2120 128° Southeast 229 264 6,600 2,667 Climbing FlightAware ADS-B
Tue 10:33:26 PM 28.2890 -81.1790 117° Southeast 235 270 8,000 2,800 Climbing FlightAware ADS-B
Tue 10:33:41 PM 28.2820 -81.1610 114° Southeast 237 273 8,700 2,800 Climbing FlightAware ADS-B
Tue 10:34:11 PM 28.2680 -81.1290 116° Southeast 239 275 10,100 2,836 Climbing FlightAware ADS-B
Tue 10:34:36 PM 28.2520 -81.1010 123° Southeast 244 281 11,300 2,585 Climbing FlightAware ADS-B
Tue 10:35:16 PM 28.2190 -81.0630 135° Southeast 257 296 12,900 2,057 Climbing FlightAware ADS-B
Tue 10:35:46 PM 28.1930 -81.0310 133° Southeast 283 326 13,700 1,520 Climbing FlightAware ADS-B
Tue 10:36:31 PM 28.1490 -80.9790 134° Southeast 312 359 14,800 1,465 Climbing FlightAware ADS-B
Tue 10:37:12 PM 28.1060 -80.9290 134° Southeast 335 386 15,800 1,482 Climbing FlightAware ADS-B
Tue 10:37:56 PM 28.0560 -80.8700 134° Southeast 357 411 16,900 1,622 Climbing FlightAware ADS-B
Tue 10:38:26 PM 28.0190 -80.8270 134° Southeast 372 428 17,800 1,760 Climbing FlightAware ADS-B
Tue 10:39:11 PM 27.9660 -80.7640 134° Southeast 376 433 19,100 1,867 Climbing FlightAware ADS-B
Tue 10:39:56 PM 27.9110 -80.7000 134° Southeast 378 435 20,600 2,000 Climbing FlightAware ADS-B
Tue 10:40:26 PM 27.8730 -80.6550 134° Southeast 377 434 21,600 1,920 Climbing FlightAware ADS-B
Tue 10:41:11 PM 27.8180 -80.5910 134° Southeast 377 434 23,000 1,674 Climbing FlightAware ADS-B
Tue 10:41:52 PM 27.7680 -80.5330 134° Southeast 381 438 24,000 1,500 Climbing FlightAware ADS-B
Tue 10:42:31 PM 27.7310 -80.4650 122° Southeast 387 445 25,000 1,482 Climbing FlightAware ADS-B
Tue 10:43:17 PM 27.7040 -80.3780 109° East 391 450 26,100 865 Climbing FlightAware ADS-B
Tue 10:44:15 PM 27.6740 -80.2810 109° East 392 451 26,500 1,263 Climbing FlightAware ADS-B
Tue 10:44:52 PM 27.6480 -80.1950 109° East 405 466 28,100 1,704 Climbing FlightAware ADS-B
Tue 10:45:36 PM 27.6200 -80.1010 109° East 415 478 28,800 1,000 Climbing FlightAware ADS-B
Tue 10:46:16 PM 27.5950 -80.0200 109° East 422 486 29,500 977 Climbing FlightAware ADS-B
Tue 10:47:02 PM 27.5670 -79.9240 108° East 430 495 30,200 918 Climbing FlightAware ADS-B
Tue 10:47:41 PM 27.5360 -79.8440 114° Southeast 435 501 30,800 1,000 Climbing FlightAware ADS-B
Tue 10:48:26 PM 27.4840 -79.7610 125° Southeast 433 498 31,600 1,059 Climbing FlightAware ADS-B
Tue 10:49:06 PM 27.4360 -79.6850 125° Southeast 435 501 32,300 1,040 Climbing FlightAware ADS-B
Tue 10:49:41 PM 27.3960 -79.6220 126° Southeast 441 507 32,900 988 Climbing FlightAware ADS-B
Tue 10:50:31 PM 27.3350 -79.5260 126° Southeast 442 509 33,700 1,000 Climbing FlightAware ADS-B
Tue 10:51:11 PM 27.2890 -79.4510 125° Southeast 437 503 34,400 1,024 Climbing FlightAware ADS-B
Tue 10:51:53 PM 27.2380 -79.3700 125° Southeast 439 505 35,100 955 Climbing FlightAware ADS-B
Tue 10:52:39 PM 27.1850 -79.2850 125° Southeast 434 499 35,800 837 Climbing FlightAware ADS-B
Tue 10:53:19 PM 27.1380 -79.2110 126° Southeast 434 499 36,300 643 Climbing FlightAware ADS-B
Tue 10:54:03 PM 27.0870 -79.1310 126° Southeast 438 504 36,700 500 Climbing FlightAware ADS-B
Tue 10:54:43 PM 27.0280 -79.0680 136° Southeast 433 498 37,000 261 Climbing FlightAware ADS-B
Tue 10:55:12 PM 26.9820 -79.0280 142° Southeast 432 497 37,000  Level FlightAware ADS-B
Tue 10:55:48 PM 26.9240 -78.9790 143° Southeast 430 495 37,000  Level FlightAware ADS-B
Tue 10:56:31 PM 26.8580 -78.9210 142° Southeast 431 496 37,000  Level FlightAware ADS-B
Tue 10:57:16 PM 26.7900 -78.8610 142° Southeast 432 497 37,000  Level FlightAware ADS-B
Tue 10:57:53 PM 26.7390 -78.8160 142° Southeast 433 498 37,000  Level FlightAware ADS-B
Tue 10:58:40 PM 26.6710 -78.7220 129° Southeast 447 514 37,000 70 Level FlightAware ADS-B
Tue 10:59:19 PM 26.6550 -78.6350 102° East 451 519 37,100 79 Climbing FlightAware ADS-B
Tue 10:59:56 PM 26.6460 -78.5480 97° East 447 514 37,100 -73 Level FlightAware ADS-B
Tue 11:00:41 PM 26.6370 -78.4470 96° East 445 512 37,000 -71 Descending FlightAware ADS-B
Tue 11:01:21 PM 26.6280 -78.3570 96° East 446 513 37,000  Level FlightAware ADS-B
Tue 11:02:05 PM 26.6190 -78.2560 96° East 446 513 37,000  Level FlightAware ADS-B
Tue 11:02:41 PM 26.6110 -78.1740 96° East 448 516 37,000  Level FlightAware ADS-B
Tue 11:03:30 PM 26.6040 -78.0780 95° East 448 516 37,000  Level FlightAware ADS-B
Tue 11:04:06 PM 26.5980 -78.0070 95° East 448 516 37,000  Level FlightAware ADS-B
Tue 11:04:54 PM 26.5910 -77.9130 95° East 448 516 37,000  Level FlightAware ADS-B
Tue 11:05:30 PM 26.5850 -77.8420 95° East 448 516 37,000  Level FlightAware ADS-B
Tue 11:06:18 PM 26.5780 -77.7480 95° East 448 516 37,000  Level FlightAware ADS-B
Tue 11:06:54 PM 26.5720 -77.6770 95° East 448 516 37,000  Level FlightAware ADS-B
Tue 11:07:42 PM 26.5650 -77.5830 95° East 448 516 37,000  Level FlightAware ADS-B
Tue 11:08:18 PM 26.5590 -77.5130 95° East 448 516 37,000  Level FlightAware ADS-B
Tue 11:08:54 PM 26.5540 -77.4420 94° East 448 516 37,000  Level FlightAware ADS-B
Tue 11:09:42 PM 26.5460 -77.3480 95° East 448 516 37,000  Level FlightAware ADS-B
Tue 11:10:19 PM 26.5410 -77.2750 94° East 448 516 37,000  Level FlightAware ADS-B
Tue 11:10:55 PM 26.5350 -77.2050 95° East 448 516 37,000  Level FlightAware ADS-B
Tue 11:11:39 PM 26.5280 -77.1180 95° East 448 516 37,000  Level FlightAware ADS-B
Tue 11:12:15 PM 26.5230 -77.0480 95° East 448 516 37,000  Level FlightAware ADS-B
Tue 11:13:18 PM 26.5147 -76.7100 95° East 451 519 37,000  Level Miami Center
Tue 11:14:19 PM 26.4914 -76.5708 101° East 446 513 37,000  Level Miami Center
Tue 11:15:18 PM 26.4536 -76.4364 107° East 446 513 37,000  Level Miami Center
Tue 11:16:18 PM 26.4092 -76.2994 110° East 458 527 37,000  Level Miami Center
Tue 11:17:19 PM 26.3689 -76.1722 109° East 458 527 37,000  Level Miami Center
Tue 11:18:19 PM 26.3264 -76.0381 109° East 458 527 37,000  Level Miami Center
Tue 11:19:20 PM 26.2839 -75.9039 109° East 458 527 37,000  Level Miami Center
Tue 11:20:20 PM 26.2328 -75.7675 113° Southeast 458 527 37,000  Level Miami Center
Tue 11:21:18 PM 26.1836 -75.6406 113° Southeast 458 527 37,000  Level Miami Center
Tue 11:22:18 PM 26.1261 -75.5164 117° Southeast 452 520 37,000 50 Level Miami Center
Tue 11:23:18 PM 26.0603 -75.3897 120° Southeast 460 529 37,100  Climbing Miami Center
Tue 11:24:18 PM 25.9961 -75.2658 120° Southeast 460 529 37,000 -49 Descending Miami Center
Tue 11:25:20 PM 25.9278 -75.1419 122° Southeast 467 537 37,000  Level Miami Center
Tue 11:26:19 PM 25.8658 -75.0228 120° Southeast 467 537 37,000  Level Miami Center
Tue 11:27:20 PM 25.8017 -74.9014 120° Southeast 461 531 37,000  Level Miami Center
Tue 11:28:18 PM 25.7606 -74.8053 115° Southeast 450 518 37,000  Level Miami Center
Tue 11:29:18 PM 25.6792 -74.6683 123° Southeast 459 528 37,000  Level Miami Center
Tue 11:30:19 PM 25.6147 -74.5450 120° Southeast 464 534 37,000  Level Miami Center
Tue 11:31:18 PM 25.5519 -74.4264 120° Southeast 464 534 37,000  Level Miami Center
Tue 11:32:20 PM 25.4872 -74.3011 120° Southeast 469 540 37,000  Level Miami Center
Tue 11:33:19 PM 25.4203 -74.1736 120° Southeast 459 528 37,000  Level Miami Center
Tue 11:34:19 PM 25.3594 -74.0578 120° Southeast 459 528 37,000  Level Miami Center
Tue 11:35:18 PM 25.2900 -73.9261 120° Southeast 471 542 37,000  Level Miami Center
Tue 11:36:18 PM 25.2269 -73.8036 120° Southeast 471 542 37,000  Level Miami Center
Tue 11:37:20 PM 25.1639 -73.6789 119° Southeast 458 527 37,000  Level Miami Center
Tue 11:38:18 PM 25.0986 -73.5614 122° Southeast 458 527 37,000  Level Miami Center
Tue 11:39:18 PM 25.0106 -73.4628 135° Southeast 458 527 37,000  Level Miami Center
Tue 11:40:18 PM 24.9186 -73.3669 137° Southeast 458 527 37,000  Level Miami Center
Tue 11:41:20 PM 24.8264 -73.2689 136° Southeast 453 521 37,000  Level Miami Center
Tue 11:42:19 PM 24.7319 -73.1711 137° Southeast 459 528 37,000  Level Miami Center
Tue 11:43:18 PM 24.6397 -73.0731 136° Southeast 459 528 37,000  Level Miami Center
Tue 11:44:18 PM 24.5369 -72.9714 138° Southeast 467 537 37,000  Level Miami Center
Tue 11:45:18 PM 24.4508 -72.8781 135° Southeast 455 524 37,000  Level Miami Center
Tue 11:46:18 PM 24.3561 -72.7786 136° Southeast 461 531 37,000  Level Miami Center
Tue 11:47:18 PM 24.2658 -72.6814 136° Southeast 461 531 37,000  Level Miami Center
Tue 11:48:18 PM 24.1711 -72.5819 136° Southeast 461 531 37,000  Level Miami Center
Tue 11:49:18 PM 24.0697 -72.4764 136° Southeast 461 531 37,000  Level Miami Center
Tue 11:50:20 PM 23.9772 -72.3819 137° Southeast 461 531 37,000  Level Miami Center
Tue 11:51:18 PM 23.8844 -72.2806 135° Southeast 461 531 37,000  Level Miami Center
Tue 11:52:19 PM 23.7914 -72.1819 136° Southeast 461 531 37,000  Level Miami Center
Tue 11:53:19 PM 23.6967 -72.0925 139° Southeast 456 525 37,000  Level Miami Center
Tue 11:54:18 PM 23.6039 -71.9964 136° Southeast 456 525 37,000  Level Miami Center
Tue 11:55:18 PM 23.5131 -71.9025 137° Southeast 456 525 37,000  Level Miami Center
Tue 11:56:20 PM 23.4181 -71.8044 137° Southeast 464 534 37,000  Level Miami Center
Tue 11:57:18 PM 23.3250 -71.7131 138° Southeast 458 527 37,000  Level Miami Center
Tue 11:58:19 PM 23.2361 -71.6128 134° Southeast 458 527 37,000  Level Miami Center
Tue 11:59:20 PM 23.1517 -71.5325 139° Southeast 458 527 37,000  Level Miami Center
Wed 12:00:18 AM 23.0628 -71.4394 136° Southeast 452 520 37,000  Level Miami Center
Wed 12:01:19 AM 22.9717 -71.3439 136° Southeast 452 520 37,000  Level Miami Center
Wed 12:02:21 AM 22.8786 -71.2533 138° Southeast 452 520 37,000  Level Miami Center
Wed 12:03:18 AM 22.7875 -71.1606 137° Southeast 452 520 37,000  Level Miami Center
Wed 12:04:19 AM 22.6964 -71.0678 137° Southeast 452 520 37,000  Level Miami Center
Wed 12:05:18 AM 22.6050 -70.9731 136° Southeast 446 513 37,000  Level Miami Center
Wed 12:06:19 AM 22.5117 -70.8808 138° Southeast 451 519 37,000  Level Miami Center
Wed 12:07:20 AM 22.4161 -70.7864 138° Southeast 457 526 37,000  Level Miami Center
Wed 12:08:18 AM 22.3269 -70.6942 136° Southeast 457 526 37,000  Level Miami Center
Wed 12:09:19 AM 22.2356 -70.6019 137° Southeast 457 526 37,000  Level Miami Center
Wed 12:10:18 AM 22.1419 -70.5103 138° Southeast 457 526 37,000  Level Miami Center
Wed 12:11:18 AM 22.0506 -70.4183 137° Southeast 457 526 37,000  Level Miami Center
Wed 12:12:18 AM 21.9589 -70.3244 136° Southeast 457 526 37,000  Level Miami Center
Wed 12:13:18 AM 21.8653 -70.2331 138° Southeast 457 526 37,000  Level Miami Center
Wed 12:14:19 AM 21.7717 -70.1417 138° Southeast 457 526 37,000  Level Miami Center
Wed 12:15:18 AM 21.6822 -70.0503 136° Southeast 457 526 37,000  Level Miami Center
Wed 12:16:18 AM 21.5925 -69.9592 137° Southeast 457 526 37,000  Level Miami Center
Wed 12:17:18 AM 21.4989 -69.8703 139° Southeast 451 519 37,000  Level Miami Center
Wed 12:18:19 AM 21.4031 -69.7797 139° Southeast 451 519 37,000  Level Miami Center
Wed 12:19:21 AM 21.3175 -69.6861 134° Southeast 451 519 37,000  Level Miami Center
Wed 12:20:18 AM 21.2236 -69.5958 138° Southeast 451 519 37,000  Level Miami Center
Wed 12:21:18 AM 21.1208 -69.4969 138° Southeast 451 519 37,000  Level Miami Center
Wed 12:22:18 AM 21.0292 -69.4064 137° Southeast 451 519 37,000  Level Miami Center
Wed 12:28:28 AM 20.4460 -68.8410 137° Southeast 451 519 37,000  Level FlightAware ADS-B
Wed 12:29:13 AM 20.3770 -68.7740 138° Southeast 450 518 37,000  Level FlightAware ADS-B
Wed 12:29:53 AM 20.3150 -68.7150 138° Southeast 451 519 37,000  Level FlightAware ADS-B
Wed 12:30:29 AM 20.2590 -68.6600 137° Southeast 452 520 37,000  Level FlightAware ADS-B
Wed 12:31:12 AM 20.1920 -68.5960 138° Southeast 453 521 37,000  Level FlightAware ADS-B
Wed 12:31:53 AM 20.1270 -68.5340 138° Southeast 455 524 37,000  Level FlightAware ADS-B
Wed 12:32:36 AM 20.0620 -68.4710 138° Southeast 458 527 37,000  Level FlightAware ADS-B
Wed 12:33:17 AM 19.9950 -68.4070 138° Southeast 460 529 37,000  Level FlightAware ADS-B
Wed 12:33:58 AM 19.9310 -68.3460 138° Southeast 463 533 37,000 71 Level FlightAware ADS-B
Wed 12:34:41 AM 19.8620 -68.2790 138° Southeast 463 533 37,100  Climbing FlightAware ADS-B
Wed 12:35:21 AM 19.7980 -68.2180 138° Southeast 462 532 37,000 -286 Descending FlightAware ADS-B
Wed 12:36:05 AM 19.7290 -68.1520 138° Southeast 463 533 36,700 -786 Descending FlightAware ADS-B
Wed 12:36:45 AM 19.6650 -68.0910 138° Southeast 459 528 35,900 -1,271 Descending FlightAware ADS-B
Wed 12:37:30 AM 19.5950 -68.0240 138° Southeast 464 534 34,900 -1,357 Descending FlightAware ADS-B
Wed 12:38:09 AM 19.5320 -67.9640 138° Southeast 466 536 34,000 -1,553 Descending FlightAware ADS-B
Wed 12:38:55 AM 19.4580 -67.8930 138° Southeast 465 535 32,700 -2,286 Descending FlightAware ADS-B
Wed 12:39:33 AM 19.3960 -67.8350 139° Southeast 469 540 30,800 -2,667 Descending FlightAware ADS-B
Wed 12:40:16 AM 19.3280 -67.7710 138° Southeast 462 532 29,100 -2,233 Descending FlightAware ADS-B
Wed 12:40:59 AM 19.2600 -67.7060 138° Southeast 449 517 27,600 -2,143 Descending FlightAware ADS-B
Wed 12:41:40 AM 19.1980 -67.6470 138° Southeast 439 505 26,100 -2,260 Descending FlightAware ADS-B
Wed 12:42:16 AM 19.1430 -67.5950 138° Southeast 433 498 24,700 -2,175 Descending FlightAware ADS-B
Wed 12:43:00 AM 19.0780 -67.5340 138° Southeast 422 486 23,200 -2,071 Descending FlightAware ADS-B
Wed 12:43:40 AM 19.0210 -67.4800 138° Southeast 411 473 21,800 -1,650 Descending FlightAware ADS-B
Wed 12:44:20 AM 18.9640 -67.4270 139° Southeast 399 459 21,000 -1,091 Descending FlightAware ADS-B
Wed 12:44:57 AM 18.9150 -67.3810 138° Southeast 375 432 20,400 -1,050 Descending FlightAware ADS-B
Wed 12:45:40 AM 18.8610 -67.3290 138° Southeast 351 404 19,600 -1,000 Descending FlightAware ADS-B
Wed 12:46:21 AM 18.8120 -67.2840 139° Southeast 342 394 19,000 -935 Descending FlightAware ADS-B
Wed 12:46:57 AM 18.7700 -67.2440 138° Southeast 339 390 18,400 -960 Descending FlightAware ADS-B
Wed 12:47:36 AM 18.7240 -67.2000 138° Southeast 335 386 17,800 -1,185 Descending FlightAware ADS-B
Wed 12:48:18 AM 18.6750 -67.1550 139° Southeast 338 389 16,800 -1,412 Descending FlightAware ADS-B
Wed 12:49:01 AM 18.6260 -67.1090 138° Southeast 326 375 15,800 -1,605 Descending FlightAware ADS-B
Wed 12:49:44 AM 18.5770 -67.0630 138° Southeast 322 371 14,500 -1,786 Descending FlightAware ADS-B
Wed 12:50:25 AM 18.5330 -67.0210 138° Southeast 318 366 13,300 -1,829 Descending FlightAware ADS-B
Wed 12:51:06 AM 18.4870 -66.9790 139° Southeast 313 360 12,000 -1,760 Descending FlightAware ADS-B
Wed 12:51:40 AM 18.4500 -66.9450 139° Southeast 308 354 11,100 -1,200 Descending FlightAware ADS-B
Wed 12:52:26 AM 18.4030 -66.9010 138° Southeast 281 323 10,400 -1,068 Descending FlightAware ADS-B
Wed 12:52:53 AM 18.3780 -66.8770 138° Southeast 279 321 9,800 -1,472 Descending FlightAware ADS-B
Wed 12:53:19 AM 18.3530 -66.8540 139° Southeast 277 319 9,100 -1,500 Descending FlightAware ADS-B
Wed 12:53:49 AM 18.3240 -66.8270 139° Southeast 272 313 8,400 -1,500 Descending FlightAware ADS-B
Wed 12:54:19 AM 18.2960 -66.8000 138° Southeast 270 311 7,600 -1,579 Descending FlightAware ADS-B
Wed 12:54:46 AM 18.2700 -66.7760 139° Southeast 269 310 6,900 -764 Descending FlightAware ADS-B
Wed 12:55:14 AM 18.2430 -66.7510 139° Southeast 271 312 6,900  Level FlightAware ADS-B
Wed 12:55:42 AM 18.2170 -66.7270 139° Southeast 271 312 6,900  Level FlightAware ADS-B
Wed 12:56:10 AM 18.1910 -66.7030 139° Southeast 269 310 6,900  Level FlightAware ADS-B
Wed 12:56:38 AM 18.1650 -66.6790 139° Southeast 268 308 6,900  Level FlightAware ADS-B
Wed 12:57:03 AM 18.1420 -66.6570 138° Southeast 266 306 6,900  Level FlightAware ADS-B
Wed 12:57:16 AM 18.1310 -66.6470 139° Southeast 252 290 6,900  Level FlightAware ADS-B
Wed 12:57:48 AM 18.1040 -66.6220 139° Southeast 220 253 6,900  Level FlightAware ADS-B
Wed 12:58:15 AM 18.0840 -66.6030 138° Southeast 217 250 6,900  Level FlightAware ADS-B
Wed 12:58:44 AM 18.0620 -66.5830 139° Southeast 216 249 6,900  Level FlightAware ADS-B
Wed 12:59:11 AM 18.0410 -66.5640 139° Southeast 216 249 6,900  Level FlightAware ADS-B
Wed 12:59:39 AM 18.0200 -66.5450 139° Southeast 217 250 6,900  Level FlightAware ADS-B
Wed 01:00:08 AM 17.9980 -66.5250 139° Southeast 221 254 6,900  Level FlightAware ADS-B
Wed 01:00:20 AM 17.9870 -66.5190 153° Southeast 225 259 6,900  Level FlightAware ADS-B
Wed 01:00:27 AM 17.9800 -66.5180 172° South 228 262 6,900 -909 Level FlightAware ADS-B
Wed 01:00:53 AM 17.9530 -66.5190 182° South 228 262 6,400 -1,071 Descending FlightAware ADS-B
Wed 01:01:23 AM 17.9200 -66.5210 183° South 226 260 5,900 -658 Descending FlightAware ADS-B
Wed 01:02:06 AM 17.8800 -66.5230 183° South 224 258 5,600 -992 Descending FlightAware ADS-B
Wed 01:03:24 AM 17.8667 -66.4500 183° South 200 230 3,900 -1,308 Descending San Juan Center
Wed 01:05:00 AM 18.0000 -66.5500 325° Northwest  Level FlightAware Approximate
Wed 01:12:00 AM 18.0083 -66.5630 325° Northwest  Level Estimated
Wed 01:13:00 AM 18.0083 -66.5630 325° Northwest  Level Estimated
Wed 01:14:00 AM 18.0083 -66.5630 325° Northwest  Level Estimated
Wed 01:15:00 AM 18.0083 -66.5630 325° Northwest  Level Estimated
Wed 01:16:00 AM 18.0083 -66.5630 325° Northwest  Level Estimated
Wed 01:17:00 AM 18.0083 -66.5630 325° Northwest  Level Estimated
Wed 01:18:00 AM 18.0083 -66.5630 325° Northwest  Level Estimated
Wed 01:19:00 AM 18.0083 -66.5630 325° Northwest  Level Estimated
Wed 01:20:00 AM 18.0083 -66.5630 325° Northwest  Level Estimated

Login

Don't have an account? Register now (free) for customized features, flight alerts, and more!